sensor_id;sensor_type;location;lat;lon;timestamp;temperature;humidity
15394;DHT22;7795;47.986;11.868;2024-02-14T00:00:34;4.20;71.70
15394;DHT22;7795;47.986;11.868;2024-02-14T00:03:00;4.20;71.80
15394;DHT22;7795;47.986;11.868;2024-02-14T00:05:29;4.20;71.90
15394;DHT22;7795;47.986;11.868;2024-02-14T00:07:55;4.20;71.90
15394;DHT22;7795;47.986;11.868;2024-02-14T00:10:21;4.20;71.90
15394;DHT22;7795;47.986;11.868;2024-02-14T00:12:47;4.20;71.90
15394;DHT22;7795;47.986;11.868;2024-02-14T00:15:14;4.10;71.80
15394;DHT22;7795;47.986;11.868;2024-02-14T00:17:41;4.10;71.90
15394;DHT22;7795;47.986;11.868;2024-02-14T00:20:09;4.10;71.90
15394;DHT22;7795;47.986;11.868;2024-02-14T00:22:37;4.10;72.00
15394;DHT22;7795;47.986;11.868;2024-02-14T00:25:04;4.10;71.90
15394;DHT22;7795;47.986;11.868;2024-02-14T00:27:30;4.00;71.90
15394;DHT22;7795;47.986;11.868;2024-02-14T00:29:56;4.00;72.00
15394;DHT22;7795;47.986;11.868;2024-02-14T00:32:23;4.00;72.10
15394;DHT22;7795;47.986;11.868;2024-02-14T00:34:48;4.00;73.00
15394;DHT22;7795;47.986;11.868;2024-02-14T00:37:15;4.00;72.20
15394;DHT22;7795;47.986;11.868;2024-02-14T00:39:41;4.00;72.20
15394;DHT22;7795;47.986;11.868;2024-02-14T00:42:06;3.90;72.40
15394;DHT22;7795;47.986;11.868;2024-02-14T00:44:32;3.90;72.40
15394;DHT22;7795;47.986;11.868;2024-02-14T00:46:58;4.00;72.50
15394;DHT22;7795;47.986;11.868;2024-02-14T00:49:29;4.00;72.60
15394;DHT22;7795;47.986;11.868;2024-02-14T00:51:55;3.90;72.50
15394;DHT22;7795;47.986;11.868;2024-02-14T00:54:20;3.90;72.50
15394;DHT22;7795;47.986;11.868;2024-02-14T00:56:46;3.90;72.50
15394;DHT22;7795;47.986;11.868;2024-02-14T00:59:12;3.90;72.60
15394;DHT22;7795;47.986;11.868;2024-02-14T01:01:38;4.00;72.70
15394;DHT22;7795;47.986;11.868;2024-02-14T01:04:04;4.00;72.70
15394;DHT22;7795;47.986;11.868;2024-02-14T01:06:31;4.00;72.70
15394;DHT22;7795;47.986;11.868;2024-02-14T01:08:57;4.00;72.80
15394;DHT22;7795;47.986;11.868;2024-02-14T01:11:22;4.00;72.80
15394;DHT22;7795;47.986;11.868;2024-02-14T01:13:48;4.00;72.80
15394;DHT22;7795;47.986;11.868;2024-02-14T01:16:14;4.00;72.80
15394;DHT22;7795;47.986;11.868;2024-02-14T01:18:40;4.00;72.90
15394;DHT22;7795;47.986;11.868;2024-02-14T01:21:05;4.00;73.00
15394;DHT22;7795;47.986;11.868;2024-02-14T01:23:34;4.00;73.00
15394;DHT22;7795;47.986;11.868;2024-02-14T01:25:59;4.10;73.10
15394;DHT22;7795;47.986;11.868;2024-02-14T01:28:26;4.10;73.10
15394;DHT22;7795;47.986;11.868;2024-02-14T01:30:51;4.10;73.10
15394;DHT22;7795;47.986;11.868;2024-02-14T01:33:17;4.10;73.10
15394;DHT22;7795;47.986;11.868;2024-02-14T01:35:43;4.10;73.10
15394;DHT22;7795;47.986;11.868;2024-02-14T01:38:09;4.20;73.20
15394;DHT22;7795;47.986;11.868;2024-02-14T01:40:36;4.20;73.20
15394;DHT22;7795;47.986;11.868;2024-02-14T01:43:01;4.20;73.30
15394;DHT22;7795;47.986;11.868;2024-02-14T01:45:27;4.20;73.30
15394;DHT22;7795;47.986;11.868;2024-02-14T01:47:53;4.20;73.30
15394;DHT22;7795;47.986;11.868;2024-02-14T01:50:21;4.20;73.30
15394;DHT22;7795;47.986;11.868;2024-02-14T01:52:54;4.30;73.40
15394;DHT22;7795;47.986;11.868;2024-02-14T01:55:21;4.30;73.30
15394;DHT22;7795;47.986;11.868;2024-02-14T01:57:48;4.30;73.30
15394;DHT22;7795;47.986;11.868;2024-02-14T02:00:15;4.30;73.30
15394;DHT22;7795;47.986;11.868;2024-02-14T02:02:43;4.30;74.10
15394;DHT22;7795;47.986;11.868;2024-02-14T02:05:09;4.30;73.20
15394;DHT22;7795;47.986;11.868;2024-02-14T02:07:35;4.30;73.20
15394;DHT22;7795;47.986;11.868;2024-02-14T02:10:05;4.30;73.20
15394;DHT22;7795;47.986;11.868;2024-02-14T02:12:31;4.30;73.30
15394;DHT22;7795;47.986;11.868;2024-02-14T02:14:59;4.40;73.30
15394;DHT22;7795;47.986;11.868;2024-02-14T02:17:25;4.40;73.30
15394;DHT22;7795;47.986;11.868;2024-02-14T02:19:53;4.40;73.30
15394;DHT22;7795;47.986;11.868;2024-02-14T02:22:19;4.40;73.30
15394;DHT22;7795;47.986;11.868;2024-02-14T02:24:46;4.30;73.20
15394;DHT22;7795;47.986;11.868;2024-02-14T02:27:13;4.40;73.30
15394;DHT22;7795;47.986;11.868;2024-02-14T02:29:44;4.40;73.30
15394;DHT22;7795;47.986;11.868;2024-02-14T02:32:11;4.40;73.30
15394;DHT22;7795;47.986;11.868;2024-02-14T02:34:37;4.40;73.30
15394;DHT22;7795;47.986;11.868;2024-02-14T02:37:05;4.40;73.30
15394;DHT22;7795;47.986;11.868;2024-02-14T02:39:34;4.40;73.30
15394;DHT22;7795;47.986;11.868;2024-02-14T02:42:03;4.40;73.30
15394;DHT22;7795;47.986;11.868;2024-02-14T02:44:29;4.50;73.50
15394;DHT22;7795;47.986;11.868;2024-02-14T02:46:54;4.50;73.40
15394;DHT22;7795;47.986;11.868;2024-02-14T02:49:21;4.50;73.40
15394;DHT22;7795;47.986;11.868;2024-02-14T02:51:46;4.50;73.40
15394;DHT22;7795;47.986;11.868;2024-02-14T02:54:13;4.50;73.50
15394;DHT22;7795;47.986;11.868;2024-02-14T02:56:39;4.50;73.50
15394;DHT22;7795;47.986;11.868;2024-02-14T02:59:07;4.50;73.40
15394;DHT22;7795;47.986;11.868;2024-02-14T03:01:35;4.50;73.40
15394;DHT22;7795;47.986;11.868;2024-02-14T03:04:01;4.60;73.50
15394;DHT22;7795;47.986;11.868;2024-02-14T03:06:27;4.60;73.40
15394;DHT22;7795;47.986;11.868;2024-02-14T03:08:53;4.50;73.30
15394;DHT22;7795;47.986;11.868;2024-02-14T03:11:22;4.50;73.30
15394;DHT22;7795;47.986;11.868;2024-02-14T03:13:47;4.60;73.40
15394;DHT22;7795;47.986;11.868;2024-02-14T03:16:15;4.50;73.30
15394;DHT22;7795;47.986;11.868;2024-02-14T03:18:42;4.60;73.30
15394;DHT22;7795;47.986;11.868;2024-02-14T03:21:08;4.50;73.20
15394;DHT22;7795;47.986;11.868;2024-02-14T03:23:34;4.50;73.20
15394;DHT22;7795;47.986;11.868;2024-02-14T03:26:00;4.50;73.30
15394;DHT22;7795;47.986;11.868;2024-02-14T03:28:25;4.50;73.40
15394;DHT22;7795;47.986;11.868;2024-02-14T03:30:53;4.50;73.40
15394;DHT22;7795;47.986;11.868;2024-02-14T03:33:20;4.60;73.50
15394;DHT22;7795;47.986;11.868;2024-02-14T03:35:47;4.60;73.50
15394;DHT22;7795;47.986;11.868;2024-02-14T03:38:13;4.50;73.40
15394;DHT22;7795;47.986;11.868;2024-02-14T03:40:40;4.50;73.40
15394;DHT22;7795;47.986;11.868;2024-02-14T03:43:07;4.50;73.40
15394;DHT22;7795;47.986;11.868;2024-02-14T03:45:36;4.50;73.40
15394;DHT22;7795;47.986;11.868;2024-02-14T03:48:03;4.50;73.40
15394;DHT22;7795;47.986;11.868;2024-02-14T03:50:31;4.50;73.50
15394;DHT22;7795;47.986;11.868;2024-02-14T03:52:58;4.50;73.50
15394;DHT22;7795;47.986;11.868;2024-02-14T03:55:23;4.50;73.50
15394;DHT22;7795;47.986;11.868;2024-02-14T03:57:50;4.50;73.60
15394;DHT22;7795;47.986;11.868;2024-02-14T04:00:17;4.50;73.50
15394;DHT22;7795;47.986;11.868;2024-02-14T04:02:43;4.50;73.60
15394;DHT22;7795;47.986;11.868;2024-02-14T04:05:09;4.50;73.50
15394;DHT22;7795;47.986;11.868;2024-02-14T04:07:36;4.50;73.40
15394;DHT22;7795;47.986;11.868;2024-02-14T04:10:03;4.50;73.50
15394;DHT22;7795;47.986;11.868;2024-02-14T04:12:29;4.50;73.50
15394;DHT22;7795;47.986;11.868;2024-02-14T04:14:55;4.40;73.30
15394;DHT22;7795;47.986;11.868;2024-02-14T04:17:20;4.40;73.30
15394;DHT22;7795;47.986;11.868;2024-02-14T04:19:46;4.40;74.10
15394;DHT22;7795;47.986;11.868;2024-02-14T04:22:12;4.40;73.30
15394;DHT22;7795;47.986;11.868;2024-02-14T04:24:39;4.30;73.30
15394;DHT22;7795;47.986;11.868;2024-02-14T04:27:05;4.30;73.30
15394;DHT22;7795;47.986;11.868;2024-02-14T04:29:31;4.30;73.30
15394;DHT22;7795;47.986;11.868;2024-02-14T04:31:58;4.20;73.30
15394;DHT22;7795;47.986;11.868;2024-02-14T04:34:24;4.20;74.10
15394;DHT22;7795;47.986;11.868;2024-02-14T04:36:50;4.20;73.40
15394;DHT22;7795;47.986;11.868;2024-02-14T04:39:16;4.20;73.40
15394;DHT22;7795;47.986;11.868;2024-02-14T04:41:43;4.20;73.40
15394;DHT22;7795;47.986;11.868;2024-02-14T04:44:09;4.20;73.50
15394;DHT22;7795;47.986;11.868;2024-02-14T04:46:35;4.10;73.40
15394;DHT22;7795;47.986;11.868;2024-02-14T04:49:01;4.10;73.40
15394;DHT22;7795;47.986;11.868;2024-02-14T04:51:29;4.00;73.30
15394;DHT22;7795;47.986;11.868;2024-02-14T04:53:56;4.00;73.30
15394;DHT22;7795;47.986;11.868;2024-02-14T04:56:24;4.00;73.40
15394;DHT22;7795;47.986;11.868;2024-02-14T04:58:52;4.00;73.40
15394;DHT22;7795;47.986;11.868;2024-02-14T05:01:17;3.90;73.40
15394;DHT22;7795;47.986;11.868;2024-02-14T05:03:43;3.90;73.40
15394;DHT22;7795;47.986;11.868;2024-02-14T05:06:09;3.90;74.30
15394;DHT22;7795;47.986;11.868;2024-02-14T05:08:35;3.90;73.60
15394;DHT22;7795;47.986;11.868;2024-02-14T05:11:01;3.80;73.70
15394;DHT22;7795;47.986;11.868;2024-02-14T05:13:26;3.80;73.70
15394;DHT22;7795;47.986;11.868;2024-02-14T05:15:54;3.80;73.80
15394;DHT22;7795;47.986;11.868;2024-02-14T05:18:19;3.80;74.00
15394;DHT22;7795;47.986;11.868;2024-02-14T05:20:45;3.80;74.10
15394;DHT22;7795;47.986;11.868;2024-02-14T05:23:11;3.80;74.20
15394;DHT22;7795;47.986;11.868;2024-02-14T05:25:36;3.80;74.30
15394;DHT22;7795;47.986;11.868;2024-02-14T05:28:02;3.80;74.30
15394;DHT22;7795;47.986;11.868;2024-02-14T05:30:28;3.90;74.50
15394;DHT22;7795;47.986;11.868;2024-02-14T05:32:55;3.80;74.50
15394;DHT22;7795;47.986;11.868;2024-02-14T05:35:22;3.90;74.60
15394;DHT22;7795;47.986;11.868;2024-02-14T05:37:47;3.90;74.60
15394;DHT22;7795;47.986;11.868;2024-02-14T05:40:15;3.90;74.50
15394;DHT22;7795;47.986;11.868;2024-02-14T05:42:41;3.90;74.40
15394;DHT22;7795;47.986;11.868;2024-02-14T05:45:07;3.90;74.40
15394;DHT22;7795;47.986;11.868;2024-02-14T05:47:35;4.00;74.40
15394;DHT22;7795;47.986;11.868;2024-02-14T05:50:02;3.90;74.40
15394;DHT22;7795;47.986;11.868;2024-02-14T05:52:29;4.00;74.50
15394;DHT22;7795;47.986;11.868;2024-02-14T05:54:55;4.00;74.40
15394;DHT22;7795;47.986;11.868;2024-02-14T05:57:20;4.00;74.40
15394;DHT22;7795;47.986;11.868;2024-02-14T05:59:46;4.00;74.40
15394;DHT22;7795;47.986;11.868;2024-02-14T06:02:12;4.00;74.40
15394;DHT22;7795;47.986;11.868;2024-02-14T06:04:38;4.00;74.40
15394;DHT22;7795;47.986;11.868;2024-02-14T06:07:05;4.00;74.40
15394;DHT22;7795;47.986;11.868;2024-02-14T06:09:32;4.00;74.50
15394;DHT22;7795;47.986;11.868;2024-02-14T06:11:58;4.00;74.50
15394;DHT22;7795;47.986;11.868;2024-02-14T06:14:23;4.00;74.60
15394;DHT22;7795;47.986;11.868;2024-02-14T06:16:49;4.00;74.60
15394;DHT22;7795;47.986;11.868;2024-02-14T06:19:15;4.10;74.80
15394;DHT22;7795;47.986;11.868;2024-02-14T06:21:40;4.10;74.80
15394;DHT22;7795;47.986;11.868;2024-02-14T06:24:08;4.10;74.80
15394;DHT22;7795;47.986;11.868;2024-02-14T06:26:35;4.10;74.80
15394;DHT22;7795;47.986;11.868;2024-02-14T06:29:00;4.20;74.90
15394;DHT22;7795;47.986;11.868;2024-02-14T06:31:26;4.20;74.90
15394;DHT22;7795;47.986;11.868;2024-02-14T06:33:52;4.20;74.90
15394;DHT22;7795;47.986;11.868;2024-02-14T06:36:17;4.20;74.90
15394;DHT22;7795;47.986;11.868;2024-02-14T06:38:43;4.20;74.80
15394;DHT22;7795;47.986;11.868;2024-02-14T06:41:13;4.20;74.70
15394;DHT22;7795;47.986;11.868;2024-02-14T06:43:38;4.20;74.70
15394;DHT22;7795;47.986;11.868;2024-02-14T06:46:05;4.20;74.70
15394;DHT22;7795;47.986;11.868;2024-02-14T06:48:30;4.30;74.80
15394;DHT22;7795;47.986;11.868;2024-02-14T06:50:56;4.30;74.80
15394;DHT22;7795;47.986;11.868;2024-02-14T06:53:22;4.30;74.80
15394;DHT22;7795;47.986;11.868;2024-02-14T06:55:48;4.30;74.90
15394;DHT22;7795;47.986;11.868;2024-02-14T06:58:15;4.40;75.00
15394;DHT22;7795;47.986;11.868;2024-02-14T07:00:41;4.40;75.80
15394;DHT22;7795;47.986;11.868;2024-02-14T07:03:06;4.40;75.10
15394;DHT22;7795;47.986;11.868;2024-02-14T07:05:32;4.40;75.10
15394;DHT22;7795;47.986;11.868;2024-02-14T07:07:58;4.40;75.20
15394;DHT22;7795;47.986;11.868;2024-02-14T07:10:23;4.50;75.20
15394;DHT22;7795;47.986;11.868;2024-02-14T07:12:49;4.50;75.20
15394;DHT22;7795;47.986;11.868;2024-02-14T07:15:17;4.50;75.20
15394;DHT22;7795;47.986;11.868;2024-02-14T07:17:43;4.60;75.30
15394;DHT22;7795;47.986;11.868;2024-02-14T07:20:09;4.60;75.20
15394;DHT22;7795;47.986;11.868;2024-02-14T07:22:35;4.70;75.20
15394;DHT22;7795;47.986;11.868;2024-02-14T07:25:00;4.70;75.20
15394;DHT22;7795;47.986;11.868;2024-02-14T07:27:26;4.70;75.20
15394;DHT22;7795;47.986;11.868;2024-02-14T07:29:52;4.80;75.20
15394;DHT22;7795;47.986;11.868;2024-02-14T07:32:20;4.80;75.30
15394;DHT22;7795;47.986;11.868;2024-02-14T07:34:45;4.90;75.40
15394;DHT22;7795;47.986;11.868;2024-02-14T07:37:11;4.90;75.30
15394;DHT22;7795;47.986;11.868;2024-02-14T07:39:37;4.90;75.30
15394;DHT22;7795;47.986;11.868;2024-02-14T07:42:04;5.00;75.40
15394;DHT22;7795;47.986;11.868;2024-02-14T07:46:56;5.10;75.50
15394;DHT22;7795;47.986;11.868;2024-02-14T07:49:23;5.10;75.30
15394;DHT22;7795;47.986;11.868;2024-02-14T07:51:48;5.20;75.40
15394;DHT22;7795;47.986;11.868;2024-02-14T07:54:14;5.20;75.30
15394;DHT22;7795;47.986;11.868;2024-02-14T07:56:40;5.30;75.40
15394;DHT22;7795;47.986;11.868;2024-02-14T07:59:06;5.40;76.30
15394;DHT22;7795;47.986;11.868;2024-02-14T08:01:31;5.40;75.40
15394;DHT22;7795;47.986;11.868;2024-02-14T08:04:00;5.50;75.40
15394;DHT22;7795;47.986;11.868;2024-02-14T08:06:27;5.50;75.30
15394;DHT22;7795;47.986;11.868;2024-02-14T08:08:53;5.60;75.40
15394;DHT22;7795;47.986;11.868;2024-02-14T08:11:22;5.60;75.20
15394;DHT22;7795;47.986;11.868;2024-02-14T08:13:48;5.60;75.20
15394;DHT22;7795;47.986;11.868;2024-02-14T08:16:14;5.70;75.10
15394;DHT22;7795;47.986;11.868;2024-02-14T08:18:40;5.70;75.10
15394;DHT22;7795;47.986;11.868;2024-02-14T08:21:09;5.70;75.10
15394;DHT22;7795;47.986;11.868;2024-02-14T08:23:37;5.80;75.20
15394;DHT22;7795;47.986;11.868;2024-02-14T08:26:04;5.80;75.30
15394;DHT22;7795;47.986;11.868;2024-02-14T08:28:35;5.90;75.50
15394;DHT22;7795;47.986;11.868;2024-02-14T08:31:01;5.90;75.30
15394;DHT22;7795;47.986;11.868;2024-02-14T08:33:27;6.00;75.30
15394;DHT22;7795;47.986;11.868;2024-02-14T08:35:53;6.00;75.20
15394;DHT22;7795;47.986;11.868;2024-02-14T08:38:22;6.10;75.30
15394;DHT22;7795;47.986;11.868;2024-02-14T08:40:50;6.20;75.30
15394;DHT22;7795;47.986;11.868;2024-02-14T08:43:15;6.20;75.30
15394;DHT22;7795;47.986;11.868;2024-02-14T08:45:41;6.30;75.30
15394;DHT22;7795;47.986;11.868;2024-02-14T08:48:07;6.40;75.30
15394;DHT22;7795;47.986;11.868;2024-02-14T08:50:33;6.40;75.30
15394;DHT22;7795;47.986;11.868;2024-02-14T08:52:59;6.50;75.40
15394;DHT22;7795;47.986;11.868;2024-02-14T08:55:24;6.50;75.40
15394;DHT22;7795;47.986;11.868;2024-02-14T08:57:52;6.60;75.40
15394;DHT22;7795;47.986;11.868;2024-02-14T09:00:18;6.70;75.50
15394;DHT22;7795;47.986;11.868;2024-02-14T09:02:47;6.80;75.40
15394;DHT22;7795;47.986;11.868;2024-02-14T09:05:13;6.80;75.30
15394;DHT22;7795;47.986;11.868;2024-02-14T09:07:39;6.90;75.10
15394;DHT22;7795;47.986;11.868;2024-02-14T09:10:07;7.00;74.90
15394;DHT22;7795;47.986;11.868;2024-02-14T09:12:33;7.10;74.80
15394;DHT22;7795;47.986;11.868;2024-02-14T09:15:00;7.10;74.70
15394;DHT22;7795;47.986;11.868;2024-02-14T09:17:26;7.20;74.60
15394;DHT22;7795;47.986;11.868;2024-02-14T09:19:51;7.30;74.60
15394;DHT22;7795;47.986;11.868;2024-02-14T09:22:17;7.40;74.40
15394;DHT22;7795;47.986;11.868;2024-02-14T09:24:46;7.50;74.30
15394;DHT22;7795;47.986;11.868;2024-02-14T09:27:12;7.60;74.20
15394;DHT22;7795;47.986;11.868;2024-02-14T09:29:38;7.60;74.10
15394;DHT22;7795;47.986;11.868;2024-02-14T09:32:05;7.70;74.00
15394;DHT22;7795;47.986;11.868;2024-02-14T09:34:31;7.80;73.90
15394;DHT22;7795;47.986;11.868;2024-02-14T09:36:57;7.90;73.80
15394;DHT22;7795;47.986;11.868;2024-02-14T09:39:24;8.00;73.60
15394;DHT22;7795;47.986;11.868;2024-02-14T09:41:51;8.10;73.50
15394;DHT22;7795;47.986;11.868;2024-02-14T09:44:20;8.20;73.50
15394;DHT22;7795;47.986;11.868;2024-02-14T09:46:47;8.20;73.30
15394;DHT22;7795;47.986;11.868;2024-02-14T09:49:16;8.30;73.20
15394;DHT22;7795;47.986;11.868;2024-02-14T09:51:44;8.40;72.90
15394;DHT22;7795;47.986;11.868;2024-02-14T09:54:12;8.50;72.90
15394;DHT22;7795;47.986;11.868;2024-02-14T09:56:38;8.60;72.90
15394;DHT22;7795;47.986;11.868;2024-02-14T09:59:04;8.70;72.90
15394;DHT22;7795;47.986;11.868;2024-02-14T10:01:31;8.80;72.80
15394;DHT22;7795;47.986;11.868;2024-02-14T10:03:59;8.90;72.80
15394;DHT22;7795;47.986;11.868;2024-02-14T10:06:26;9.00;72.80
15394;DHT22;7795;47.986;11.868;2024-02-14T10:08:52;9.10;72.60
15394;DHT22;7795;47.986;11.868;2024-02-14T10:11:18;9.20;72.60
15394;DHT22;7795;47.986;11.868;2024-02-14T10:13:47;9.30;72.50
15394;DHT22;7795;47.986;11.868;2024-02-14T10:16:13;9.40;72.40
15394;DHT22;7795;47.986;11.868;2024-02-14T10:18:39;9.50;72.20
15394;DHT22;7795;47.986;11.868;2024-02-14T10:21:05;9.60;71.90
15394;DHT22;7795;47.986;11.868;2024-02-14T10:23:33;9.70;71.70
15394;DHT22;7795;47.986;11.868;2024-02-14T10:25:58;9.80;71.50
15394;DHT22;7795;47.986;11.868;2024-02-14T10:28:24;9.80;71.30
15394;DHT22;7795;47.986;11.868;2024-02-14T10:30:50;10.00;71.20
15394;DHT22;7795;47.986;11.868;2024-02-14T10:33:16;10.10;71.20
15394;DHT22;7795;47.986;11.868;2024-02-14T10:35:43;10.20;71.20
15394;DHT22;7795;47.986;11.868;2024-02-14T10:38:09;10.30;71.20
15394;DHT22;7795;47.986;11.868;2024-02-14T10:40:37;10.40;71.10
15394;DHT22;7795;47.986;11.868;2024-02-14T10:43:08;10.50;70.70
15394;DHT22;7795;47.986;11.868;2024-02-14T10:45:37;10.60;70.50
15394;DHT22;7795;47.986;11.868;2024-02-14T10:48:06;10.70;70.30
15394;DHT22;7795;47.986;11.868;2024-02-14T10:50:33;10.80;70.80
15394;DHT22;7795;47.986;11.868;2024-02-14T10:53:04;10.80;70.00
15394;DHT22;7795;47.986;11.868;2024-02-14T10:55:31;10.90;69.80
15394;DHT22;7795;47.986;11.868;2024-02-14T10:57:59;11.00;69.70
15394;DHT22;7795;47.986;11.868;2024-02-14T11:00:27;11.10;69.40
15394;DHT22;7795;47.986;11.868;2024-02-14T11:02:53;11.10;69.10
15394;DHT22;7795;47.986;11.868;2024-02-14T11:05:20;11.20;69.00
15394;DHT22;7795;47.986;11.868;2024-02-14T11:07:49;11.30;69.60
15394;DHT22;7795;47.986;11.868;2024-02-14T11:10:20;11.30;68.80
15394;DHT22;7795;47.986;11.868;2024-02-14T11:12:47;11.40;68.70
15394;DHT22;7795;47.986;11.868;2024-02-14T11:15:19;11.50;68.80
15394;DHT22;7795;47.986;11.868;2024-02-14T11:17:46;11.50;68.50
15394;DHT22;7795;47.986;11.868;2024-02-14T11:20:14;11.60;68.70
15394;DHT22;7795;47.986;11.868;2024-02-14T11:22:50;11.70;68.40
15394;DHT22;7795;47.986;11.868;2024-02-14T11:25:18;11.80;67.90
15394;DHT22;7795;47.986;11.868;2024-02-14T11:27:45;11.90;68.30
15394;DHT22;7795;47.986;11.868;2024-02-14T11:30:11;12.00;68.20
15394;DHT22;7795;47.986;11.868;2024-02-14T11:32:39;12.00;68.10
15394;DHT22;7795;47.986;11.868;2024-02-14T11:35:11;12.10;68.70
15394;DHT22;7795;47.986;11.868;2024-02-14T11:37:38;12.20;67.80
15394;DHT22;7795;47.986;11.868;2024-02-14T11:40:04;12.30;68.70
15394;DHT22;7795;47.986;11.868;2024-02-14T11:42:32;12.30;67.80
15394;DHT22;7795;47.986;11.868;2024-02-14T11:44:58;12.40;67.60
15394;DHT22;7795;47.986;11.868;2024-02-14T11:47:25;12.50;67.50
15394;DHT22;7795;47.986;11.868;2024-02-14T11:49:52;12.60;67.30
15394;DHT22;7795;47.986;11.868;2024-02-14T11:52:18;12.60;67.00
15394;DHT22;7795;47.986;11.868;2024-02-14T11:54:46;12.70;67.20
15394;DHT22;7795;47.986;11.868;2024-02-14T11:57:17;12.70;67.00
15394;DHT22;7795;47.986;11.868;2024-02-14T11:59:42;12.80;66.80
15394;DHT22;7795;47.986;11.868;2024-02-14T12:02:08;12.90;66.90
15394;DHT22;7795;47.986;11.868;2024-02-14T12:04:34;12.90;66.70
15394;DHT22;7795;47.986;11.868;2024-02-14T12:07:02;12.90;66.50
15394;DHT22;7795;47.986;11.868;2024-02-14T12:09:28;13.00;66.40
15394;DHT22;7795;47.986;11.868;2024-02-14T12:11:53;13.10;66.70
15394;DHT22;7795;47.986;11.868;2024-02-14T12:14:22;13.10;66.70
15394;DHT22;7795;47.986;11.868;2024-02-14T12:16:50;13.10;66.60
15394;DHT22;7795;47.986;11.868;2024-02-14T12:19:16;13.20;66.80
15394;DHT22;7795;47.986;11.868;2024-02-14T12:21:42;13.30;66.80
15394;DHT22;7795;47.986;11.868;2024-02-14T12:24:13;13.30;66.60
15394;DHT22;7795;47.986;11.868;2024-02-14T12:26:40;13.40;66.40
15394;DHT22;7795;47.986;11.868;2024-02-14T12:29:07;13.50;66.30
15394;DHT22;7795;47.986;11.868;2024-02-14T12:31:34;13.60;66.30
15394;DHT22;7795;47.986;11.868;2024-02-14T12:34:02;13.60;66.10
15394;DHT22;7795;47.986;11.868;2024-02-14T12:36:30;13.70;65.90
15394;DHT22;7795;47.986;11.868;2024-02-14T12:38:56;13.80;65.80
15394;DHT22;7795;47.986;11.868;2024-02-14T12:41:23;13.90;65.80
15394;DHT22;7795;47.986;11.868;2024-02-14T12:43:52;13.90;65.60
15394;DHT22;7795;47.986;11.868;2024-02-14T12:46:18;14.00;65.50
15394;DHT22;7795;47.986;11.868;2024-02-14T12:48:44;14.10;65.40
15394;DHT22;7795;47.986;11.868;2024-02-14T12:51:10;14.10;65.20
15394;DHT22;7795;47.986;11.868;2024-02-14T12:53:35;14.20;64.80
15394;DHT22;7795;47.986;11.868;2024-02-14T12:56:02;14.20;64.60
15394;DHT22;7795;47.986;11.868;2024-02-14T12:58:31;14.30;64.80
15394;DHT22;7795;47.986;11.868;2024-02-14T13:00:57;14.30;64.60
15394;DHT22;7795;47.986;11.868;2024-02-14T13:03:24;14.40;64.70
15394;DHT22;7795;47.986;11.868;2024-02-14T13:05:50;14.50;64.20
15394;DHT22;7795;47.986;11.868;2024-02-14T13:08:16;14.50;63.50
15394;DHT22;7795;47.986;11.868;2024-02-14T13:10:43;14.60;63.60
15394;DHT22;7795;47.986;11.868;2024-02-14T13:13:09;14.70;63.30
15394;DHT22;7795;47.986;11.868;2024-02-14T13:15:36;14.80;62.90
15394;DHT22;7795;47.986;11.868;2024-02-14T13:18:02;14.90;63.30
15394;DHT22;7795;47.986;11.868;2024-02-14T13:20:28;15.00;62.20
15394;DHT22;7795;47.986;11.868;2024-02-14T13:22:54;15.10;61.60
15394;DHT22;7795;47.986;11.868;2024-02-14T13:25:20;15.20;61.20
15394;DHT22;7795;47.986;11.868;2024-02-14T13:27:46;15.30;60.90
15394;DHT22;7795;47.986;11.868;2024-02-14T13:30:12;15.40;60.80
15394;DHT22;7795;47.986;11.868;2024-02-14T13:32:39;15.50;60.80
15394;DHT22;7795;47.986;11.868;2024-02-14T13:35:06;15.50;61.20
15394;DHT22;7795;47.986;11.868;2024-02-14T13:37:33;15.60;61.40
15394;DHT22;7795;47.986;11.868;2024-02-14T13:39:58;15.60;61.40
15394;DHT22;7795;47.986;11.868;2024-02-14T13:42:24;15.60;61.40
15394;DHT22;7795;47.986;11.868;2024-02-14T13:44:51;15.70;61.50
15394;DHT22;7795;47.986;11.868;2024-02-14T13:47:19;15.70;61.60
15394;DHT22;7795;47.986;11.868;2024-02-14T13:49:47;15.70;61.30
15394;DHT22;7795;47.986;11.868;2024-02-14T13:52:13;15.70;61.10
15394;DHT22;7795;47.986;11.868;2024-02-14T13:54:41;15.70;61.10
15394;DHT22;7795;47.986;11.868;2024-02-14T13:57:06;15.80;61.20
15394;DHT22;7795;47.986;11.868;2024-02-14T13:59:32;15.80;61.10
15394;DHT22;7795;47.986;11.868;2024-02-14T14:01:58;15.80;61.00
15394;DHT22;7795;47.986;11.868;2024-02-14T14:04:24;15.80;61.00
15394;DHT22;7795;47.986;11.868;2024-02-14T14:06:52;15.80;61.10
15394;DHT22;7795;47.986;11.868;2024-02-14T14:09:20;15.80;61.10
15394;DHT22;7795;47.986;11.868;2024-02-14T14:11:46;15.90;61.20
15394;DHT22;7795;47.986;11.868;2024-02-14T14:14:15;15.90;61.00
15394;DHT22;7795;47.986;11.868;2024-02-14T14:16:44;16.00;60.90
15394;DHT22;7795;47.986;11.868;2024-02-14T14:19:10;16.00;60.80
15394;DHT22;7795;47.986;11.868;2024-02-14T14:21:36;16.00;60.80
15394;DHT22;7795;47.986;11.868;2024-02-14T14:24:05;16.00;60.70
15394;DHT22;7795;47.986;11.868;2024-02-14T14:26:31;16.10;60.40
15394;DHT22;7795;47.986;11.868;2024-02-14T14:28:56;16.10;60.60
15394;DHT22;7795;47.986;11.868;2024-02-14T14:31:22;16.10;60.70
15394;DHT22;7795;47.986;11.868;2024-02-14T14:33:48;16.20;60.90
15394;DHT22;7795;47.986;11.868;2024-02-14T14:36:14;16.20;60.70
15394;DHT22;7795;47.986;11.868;2024-02-14T14:38:40;16.20;60.50
15394;DHT22;7795;47.986;11.868;2024-02-14T14:41:07;16.20;60.40
15394;DHT22;7795;47.986;11.868;2024-02-14T14:43:33;16.30;60.40
15394;DHT22;7795;47.986;11.868;2024-02-14T14:45:59;16.30;60.40
15394;DHT22;7795;47.986;11.868;2024-02-14T14:48:25;16.30;60.60
15394;DHT22;7795;47.986;11.868;2024-02-14T14:50:51;16.40;60.80
15394;DHT22;7795;47.986;11.868;2024-02-14T14:53:18;16.40;60.80
15394;DHT22;7795;47.986;11.868;2024-02-14T14:55:52;16.40;60.90
15394;DHT22;7795;47.986;11.868;2024-02-14T14:58:19;16.40;60.90
15394;DHT22;7795;47.986;11.868;2024-02-14T15:00:47;16.30;61.00
15394;DHT22;7795;47.986;11.868;2024-02-14T15:03:13;16.30;61.10
15394;DHT22;7795;47.986;11.868;2024-02-14T15:05:39;16.30;61.10
15394;DHT22;7795;47.986;11.868;2024-02-14T15:08:06;16.30;61.10
15394;DHT22;7795;47.986;11.868;2024-02-14T15:10:33;16.20;61.10
15394;DHT22;7795;47.986;11.868;2024-02-14T15:12:59;16.20;61.00
15394;DHT22;7795;47.986;11.868;2024-02-14T15:15:26;16.20;61.00
15394;DHT22;7795;47.986;11.868;2024-02-14T15:17:52;16.20;60.90
15394;DHT22;7795;47.986;11.868;2024-02-14T15:20:18;16.10;60.80
15394;DHT22;7795;47.986;11.868;2024-02-14T15:22:44;16.00;60.60
15394;DHT22;7795;47.986;11.868;2024-02-14T15:25:10;16.00;60.70
15394;DHT22;7795;47.986;11.868;2024-02-14T15:27:36;15.90;60.70
15394;DHT22;7795;47.986;11.868;2024-02-14T15:30:07;15.90;60.70
15394;DHT22;7795;47.986;11.868;2024-02-14T15:32:53;15.80;60.70
15394;DHT22;7795;47.986;11.868;2024-02-14T15:35:37;15.80;60.90
15394;DHT22;7795;47.986;11.868;2024-02-14T15:38:04;15.70;61.00